TimeCST,TemperatureF,Dew PointF,Humidity,Sea Level PressureIn,VisibilityMPH,Wind Direction,Wind SpeedMPH,Gust SpeedMPH,PrecipitationIn,Events,Conditions,WindDirDegrees,DateUTC
12:08 AM,30.9,19.0,61,-9999,-9999.0,NW,5.8,-,N/A,,Unknown,320,2013-02-15 06:08:00
12:28 AM,30.0,19.0,64,-9999,-9999.0,NW,5.8,-,N/A,,Unknown,310,2013-02-15 06:28:00
12:48 AM,30.0,18.1,61,-9999,-9999.0,NNW,6.9,-,N/A,,Unknown,330,2013-02-15 06:48:00
1:08 AM,30.9,20.1,64,-9999,-9999.0,NW,5.8,-,N/A,,Unknown,320,2013-02-15 07:08:00
1:28 AM,30.9,19.0,61,-9999,-9999.0,NW,5.8,-,N/A,,Unknown,320,2013-02-15 07:28:00
1:48 AM,30.0,19.0,64,-9999,-9999.0,NW,5.8,-,N/A,,Unknown,310,2013-02-15 07:48:00
2:08 AM,30.0,19.0,64,-9999,-9999.0,NW,5.8,-,N/A,,Unknown,310,2013-02-15 08:08:00
2:28 AM,30.0,19.0,64,-9999,-9999.0,NW,4.6,-,N/A,,Unknown,320,2013-02-15 08:28:00
2:48 AM,30.0,18.1,61,-9999,-9999.0,NW,4.6,-,N/A,,Unknown,320,2013-02-15 08:48:00
3:08 AM,30.0,18.1,61,-9999,-9999.0,NW,4.6,-,N/A,,Unknown,320,2013-02-15 09:08:00
3:28 AM,30.0,17.1,59,-9999,-9999.0,NW,4.6,-,N/A,,Unknown,320,2013-02-15 09:28:00
3:48 AM,28.9,15.1,56,-9999,-9999.0,NNW,5.8,-,N/A,,Unknown,330,2013-02-15 09:48:00
4:08 AM,28.9,14.0,54,-9999,-9999.0,NW,6.9,-,N/A,,Unknown,320,2013-02-15 10:08:00
4:28 AM,28.0,14.0,56,-9999,-9999.0,NNW,3.5,-,N/A,,Unknown,330,2013-02-15 10:28:00
4:48 AM,27.0,13.1,56,-9999,-9999.0,NW,4.6,-,N/A,,Unknown,320,2013-02-15 10:48:00
5:08 AM,26.1,14.0,60,-9999,-9999.0,NW,3.5,-,N/A,,Unknown,310,2013-02-15 11:08:00
5:28 AM,26.1,13.1,58,-9999,-9999.0,NW,4.6,-,N/A,,Unknown,320,2013-02-15 11:28:00
5:48 AM,26.1,13.1,58,-9999,-9999.0,NW,2.3,-,N/A,,Unknown,320,2013-02-15 11:48:00
6:08 AM,26.1,13.1,58,-9999,-9999.0,WNW,3.5,-,N/A,,Unknown,300,2013-02-15 12:08:00
6:28 AM,26.1,14.0,60,-9999,-9999.0,NW,2.3,-,N/A,,Unknown,310,2013-02-15 12:28:00
6:48 AM,26.1,13.1,58,-9999,-9999.0,NW,2.3,-,N/A,,Unknown,320,2013-02-15 12:48:00
7:08 AM,26.1,13.1,58,-9999,-9999.0,NNW,2.3,-,N/A,,Unknown,330,2013-02-15 13:08:00
7:28 AM,26.1,13.1,58,-9999,-9999.0,NNW,3.5,-,N/A,,Unknown,330,2013-02-15 13:28:00
7:48 AM,26.1,13.1,58,-9999,-9999.0,NNW,1.2,-,N/A,,Unknown,330,2013-02-15 13:48:00
8:08 AM,26.1,13.1,58,-9999,-9999.0,NNW,1.2,-,N/A,,Unknown,330,2013-02-15 14:08:00
8:28 AM,26.1,14.0,60,-9999,-9999.0,NW,2.3,-,N/A,,Unknown,310,2013-02-15 14:28:00
8:48 AM,27.0,13.1,56,-9999,-9999.0,NNW,2.3,-,N/A,,Unknown,330,2013-02-15 14:48:00
9:08 AM,28.0,14.0,56,-9999,-9999.0,NNW,2.3,-,N/A,,Unknown,330,2013-02-15 15:08:00
9:28 AM,28.0,15.1,58,-9999,-9999.0,NW,2.3,-,N/A,,Unknown,310,2013-02-15 15:28:00
9:48 AM,28.9,16.2,59,-9999,-9999.0,Calm,Calm,-,N/A,,Unknown,0,2013-02-15 15:48:00
10:08 AM,32.0,17.1,54,-9999,-9999.0,Calm,Calm,-,N/A,,Unknown,0,2013-02-15 16:08:00
10:28 AM,33.1,18.1,54,-9999,-9999.0,West,2.3,-,N/A,,Unknown,270,2013-02-15 16:28:00
10:48 AM,34.0,15.1,46,-9999,-9999.0,SSW,4.6,-,N/A,,Unknown,210,2013-02-15 16:48:00
11:08 AM,35.1,16.2,46,-9999,-9999.0,WSW,3.5,-,N/A,,Unknown,240,2013-02-15 17:08:00
11:28 AM,36.0,16.2,45,-9999,-9999.0,WSW,6.9,-,N/A,,Unknown,240,2013-02-15 17:28:00
11:48 AM,37.9,14.0,38,-9999,-9999.0,SSW,8.1,-,N/A,,Unknown,200,2013-02-15 17:48:00
12:08 PM,39.0,15.1,38,-9999,-9999.0,SSW,5.8,-,N/A,,Unknown,210,2013-02-15 18:08:00
12:28 PM,39.9,15.1,36,-9999,-9999.0,SW,9.2,-,N/A,,Unknown,220,2013-02-15 18:28:00
12:48 PM,42.1,15.1,34,-9999,-9999.0,SSW,8.1,-,N/A,,Unknown,210,2013-02-15 18:48:00
1:08 PM,43.0,17.1,35,-9999,-9999.0,West,8.1,-,N/A,,Unknown,270,2013-02-15 19:08:00
1:28 PM,44.1,17.1,34,-9999,-9999.0,WSW,11.5,-,N/A,,Unknown,240,2013-02-15 19:28:00
1:48 PM,45.0,17.1,33,-9999,-9999.0,NW,6.9,-,N/A,,Unknown,310,2013-02-15 19:48:00
2:08 PM,45.0,16.2,32,-9999,-9999.0,North,5.8,-,N/A,,Unknown,360,2013-02-15 20:08:00
2:28 PM,44.1,16.2,33,-9999,-9999.0,WNW,6.9,-,N/A,,Unknown,300,2013-02-15 20:28:00
2:48 PM,45.0,17.1,33,-9999,-9999.0,North,4.6,-,N/A,,Unknown,350,2013-02-15 20:48:00
3:08 PM,45.0,14.0,29,-9999,-9999.0,NW,6.9,-,N/A,,Unknown,320,2013-02-15 21:08:00
3:28 PM,46.0,15.1,29,-9999,-9999.0,WNW,12.7,-,N/A,,Unknown,300,2013-02-15 21:28:00
3:48 PM,46.0,14.0,28,-9999,-9999.0,WNW,10.4,-,N/A,,Unknown,300,2013-02-15 21:48:00
4:08 PM,45.0,12.0,26,-9999,-9999.0,NNW,12.7,-,N/A,,Unknown,340,2013-02-15 22:08:00
4:28 PM,44.1,12.0,27,-9999,-9999.0,NNW,12.7,-,N/A,,Unknown,340,2013-02-15 22:28:00
4:48 PM,43.0,11.1,27,-9999,-9999.0,NNW,12.7,-,N/A,,Unknown,330,2013-02-15 22:48:00
5:08 PM,44.1,11.1,26,-9999,-9999.0,NNW,10.4,-,N/A,,Unknown,340,2013-02-15 23:08:00
5:28 PM,44.1,13.1,29,-9999,-9999.0,North,12.7,-,N/A,,Unknown,350,2013-02-15 23:28:00
5:48 PM,42.1,15.1,34,-9999,-9999.0,NNW,11.5,-,N/A,,Unknown,330,2013-02-15 23:48:00
6:08 PM,42.1,14.0,32,-9999,-9999.0,NNW,10.4,-,N/A,,Unknown,330,2013-02-16 00:08:00
6:28 PM,39.9,14.0,35,-9999,-9999.0,NNW,12.7,-,N/A,,Unknown,340,2013-02-16 00:28:00
6:48 PM,37.9,13.1,36,-9999,-9999.0,NNW,12.7,-,N/A,,Unknown,340,2013-02-16 00:48:00
7:08 PM,37.0,15.1,41,-9999,-9999.0,North,12.7,-,N/A,,Unknown,360,2013-02-16 01:08:00
7:28 PM,36.0,15.1,43,-9999,-9999.0,North,10.4,-,N/A,,Unknown,350,2013-02-16 01:28:00
7:48 PM,34.0,15.1,46,-9999,-9999.0,North,6.9,-,N/A,,Unknown,360,2013-02-16 01:48:00
8:08 PM,33.1,16.2,50,-9999,-9999.0,North,6.9,-,N/A,,Unknown,360,2013-02-16 02:08:00
8:28 PM,32.0,17.1,54,-9999,-9999.0,North,5.8,-,N/A,,Unknown,350,2013-02-16 02:28:00
8:48 PM,30.9,18.1,59,-9999,-9999.0,North,3.5,-,N/A,,Unknown,350,2013-02-16 02:48:00
9:08 PM,30.0,18.1,61,-9999,-9999.0,NNW,3.5,-,N/A,,Unknown,330,2013-02-16 03:08:00
9:28 PM,30.0,18.1,61,-9999,-9999.0,NNW,3.5,-,N/A,,Unknown,330,2013-02-16 03:28:00
9:48 PM,28.9,18.1,64,-9999,-9999.0,WNW,4.6,-,N/A,,Unknown,300,2013-02-16 03:48:00
10:08 PM,28.9,17.1,61,-9999,-9999.0,West,4.6,-,N/A,,Unknown,260,2013-02-16 04:08:00
10:28 PM,25.0,14.0,63,-9999,-9999.0,WSW,5.8,-,N/A,,Unknown,250,2013-02-16 04:28:00
10:48 PM,27.0,14.0,58,-9999,-9999.0,West,6.9,-,N/A,,Unknown,280,2013-02-16 04:48:00
11:08 PM,28.0,12.0,51,-9999,-9999.0,NW,8.1,-,N/A,,Unknown,320,2013-02-16 05:08:00
11:28 PM,28.0,12.0,51,-9999,-9999.0,NNW,8.1,-,N/A,,Unknown,340,2013-02-16 05:28:00
11:48 PM,28.0,10.0,47,-9999,-9999.0,NNW,9.2,-,N/A,,Unknown,340,2013-02-16 05:48:00